Time,TemperatureF,DewpointF,PressureIn,WindDirection,WindDirectionDegrees,WindSpeedMPH,WindSpeedGustMPH,Humidity,HourlyPrecipIn,Conditions,Clouds,dailyrainin,SoftwareType,DateUTC
2013-05-23 00:03:00,69.0,61.0,29.93,ESE,110,2.0,5.0,75,0.00,,,0.00,,2013-05-23 04:03:00,
2013-05-23 00:12:00,69.0,61.0,29.93,ESE,110,2.0,5.0,75,0.00,,,0.00,,2013-05-23 04:12:00,
2013-05-23 00:22:00,69.0,60.0,29.93,SSE,150,5.0,7.0,74,0.00,,,0.00,,2013-05-23 04:22:00,
2013-05-23 00:33:00,69.0,60.0,29.93,South,170,5.0,5.0,73,0.00,,,0.00,,2013-05-23 04:33:00,
2013-05-23 00:43:00,69.0,60.0,29.93,South,170,5.0,5.0,73,0.00,,,0.00,,2013-05-23 04:43:00,
2013-05-23 00:52:00,70.0,61.0,29.93,South,180,5.0,7.0,72,0.00,,,0.00,,2013-05-23 04:52:00,
2013-05-23 01:02:00,69.0,60.0,29.93,SE,135,6.0,8.0,72,0.00,,,0.00,,2013-05-23 05:02:00,
2013-05-23 01:11:00,69.0,60.0,29.93,SE,135,6.0,8.0,72,0.00,,,0.00,,2013-05-23 05:11:00,
2013-05-23 01:22:00,69.0,60.0,29.93,SSE,160,6.0,9.0,73,0.00,,,0.00,,2013-05-23 05:22:00,
2013-05-23 01:32:00,69.0,60.0,29.93,SE,145,5.0,7.0,73,0.00,,,0.00,,2013-05-23 05:32:00,
2013-05-23 01:42:00,69.0,60.0,29.93,SSW,195,7.0,9.0,74,0.00,,,0.00,,2013-05-23 05:42:00,
2013-05-23 01:52:00,69.0,60.0,29.93,SSW,195,7.0,9.0,74,0.00,,,0.00,,2013-05-23 05:52:00,
2013-05-23 02:02:00,69.0,60.0,29.93,SSE,150,7.0,7.0,74,0.00,,,0.00,,2013-05-23 06:02:00,
2013-05-23 02:12:00,69.0,61.0,29.93,SSE,160,5.0,7.0,76,0.00,,,0.00,,2013-05-23 06:12:00,
2013-05-23 02:21:00,69.0,61.0,29.93,SSE,160,5.0,7.0,76,0.00,,,0.00,,2013-05-23 06:21:00,
2013-05-23 02:32:00,69.0,61.0,29.93,SSE,155,5.0,5.0,75,0.00,,,0.00,,2013-05-23 06:32:00,
2013-05-23 02:42:00,69.0,61.0,29.93,SSE,155,5.0,5.0,75,0.00,,,0.00,,2013-05-23 06:42:00,
2013-05-23 02:52:00,68.0,61.0,29.90,SSE,160,5.0,9.0,78,0.00,,,0.00,,2013-05-23 06:52:00,
2013-05-23 03:02:00,68.0,61.0,29.93,South,185,5.0,7.0,78,0.00,,,0.00,,2013-05-23 07:02:00,
2013-05-23 03:11:00,68.0,61.0,29.93,South,185,5.0,7.0,78,0.00,,,0.00,,2013-05-23 07:11:00,
2013-05-23 03:21:00,68.0,61.0,29.90,SSE,155,3.0,6.0,79,0.00,,,0.00,,2013-05-23 07:21:00,
2013-05-23 03:32:00,68.0,61.0,29.90,SSE,155,5.0,9.0,79,0.00,,,0.00,,2013-05-23 07:32:00,
2013-05-23 03:42:00,68.0,61.0,29.90,ESE,110,5.0,9.0,77,0.00,,,0.00,,2013-05-23 07:42:00,
2013-05-23 03:59:00,68.0,61.0,29.90,ESE,110,5.0,9.0,77,0.00,,,0.00,,2013-05-23 07:59:00,
2013-05-23 04:11:00,68.0,61.0,29.90,SSE,160,5.0,9.0,77,0.00,,,0.00,,2013-05-23 08:11:00,
2013-05-23 04:22:00,68.0,60.0,29.90,SE,130,6.0,9.0,76,0.00,,,0.00,,2013-05-23 08:22:00,
2013-05-23 04:32:00,68.0,61.0,29.90,SSW,195,6.0,9.0,77,0.00,,,0.00,,2013-05-23 08:32:00,
2013-05-23 04:42:00,68.0,61.0,29.90,SSW,195,6.0,9.0,77,0.00,,,0.00,,2013-05-23 08:42:00,
2013-05-23 04:52:00,67.0,60.0,29.90,SSE,150,3.0,7.0,77,0.00,,,0.00,,2013-05-23 08:52:00,
2013-05-23 05:02:00,68.0,61.0,29.90,SW,220,3.0,6.0,78,0.00,,,0.00,,2013-05-23 09:02:00,
2013-05-23 05:11:00,68.0,61.0,29.90,SW,220,3.0,6.0,78,0.00,,,0.00,,2013-05-23 09:11:00,
2013-05-23 05:22:00,68.0,61.0,29.90,SSW,195,5.0,7.0,77,0.00,,,0.00,,2013-05-23 09:22:00,
2013-05-23 05:33:00,68.0,61.0,29.90,SSE,165,5.0,7.0,77,0.00,,,0.00,,2013-05-23 09:33:00,
2013-05-23 05:42:00,68.0,61.0,29.90,SSE,165,5.0,7.0,77,0.00,,,0.00,,2013-05-23 09:42:00,
2013-05-23 05:53:00,67.0,60.0,29.93,SSW,205,5.0,8.0,77,0.00,,,0.00,,2013-05-23 09:53:00,
2013-05-23 06:03:00,67.0,60.0,29.93,SSE,165,5.0,9.0,78,0.00,,,0.00,,2013-05-23 10:03:00,
2013-05-23 06:13:00,67.0,60.0,29.93,SSE,165,5.0,9.0,78,0.00,,,0.00,,2013-05-23 10:13:00,
2013-05-23 06:22:00,67.0,60.0,29.93,South,175,6.0,9.0,79,0.00,,,0.00,,2013-05-23 10:22:00,
2013-05-23 06:32:00,67.0,61.0,29.93,SE,140,6.0,7.0,80,0.00,,,0.00,,2013-05-23 10:32:00,
2013-05-23 06:42:00,67.0,61.0,29.93,SE,140,6.0,7.0,80,0.00,,,0.00,,2013-05-23 10:42:00,
2013-05-23 06:52:00,67.0,60.0,29.93,SSE,165,3.0,5.0,79,0.00,,,0.00,,2013-05-23 10:52:00,
2013-05-23 07:02:00,68.0,61.0,29.93,East,100,3.0,7.0,79,0.00,,,0.00,,2013-05-23 11:02:00,
2013-05-23 07:11:00,68.0,61.0,29.93,East,100,3.0,7.0,79,0.00,,,0.00,,2013-05-23 11:11:00,
2013-05-23 07:22:00,71.0,61.0,29.93,SE,125,2.0,5.0,71,0.00,,,0.00,,2013-05-23 11:22:00,
2013-05-23 07:32:00,77.0,59.0,29.93,SSE,155,2.0,5.0,54,0.00,,,0.00,,2013-05-23 11:32:00,
2013-05-23 07:42:00,77.0,59.0,29.93,SSE,155,2.0,5.0,54,0.00,,,0.00,,2013-05-23 11:42:00,
2013-05-23 07:52:00,78.0,58.0,29.93,ESE,120,3.0,6.0,51,0.00,,,0.00,,2013-05-23 11:52:00,
2013-05-23 08:01:00,78.0,57.0,29.93,South,170,3.0,6.0,49,0.00,,,0.00,,2013-05-23 12:01:00,
2013-05-23 08:12:00,78.0,57.0,29.93,South,170,3.0,6.0,49,0.00,,,0.00,,2013-05-23 12:12:00,
2013-05-23 08:21:00,74.0,59.0,29.93,SE,145,7.0,10.0,59,0.00,,,0.00,,2013-05-23 12:21:00,
2013-05-23 08:32:00,73.0,60.0,29.93,South,185,6.0,7.0,63,0.00,,,0.00,,2013-05-23 12:32:00,
2013-05-23 08:42:00,73.0,60.0,29.93,South,185,6.0,7.0,63,0.00,,,0.00,,2013-05-23 12:42:00,
2013-05-23 08:52:00,74.0,60.0,29.93,SE,140,6.0,7.0,62,0.00,,,0.00,,2013-05-23 12:52:00,
2013-05-23 09:01:00,74.0,60.0,29.93,South,170,6.0,9.0,61,0.00,,,0.00,,2013-05-23 13:01:00,
2013-05-23 09:11:00,74.0,60.0,29.93,South,170,6.0,9.0,61,0.00,,,0.00,,2013-05-23 13:11:00,
2013-05-23 09:22:00,74.0,60.0,29.96,SSE,150,7.0,13.0,61,0.00,,,0.00,,2013-05-23 13:22:00,
2013-05-23 09:32:00,74.0,59.0,29.96,SSE,155,6.0,8.0,60,0.00,,,0.00,,2013-05-23 13:32:00,
2013-05-23 09:42:00,74.0,59.0,29.96,SSE,155,6.0,8.0,60,0.00,,,0.00,,2013-05-23 13:42:00,
2013-05-23 09:52:00,75.0,60.0,29.96,SSE,160,8.0,9.0,59,0.00,,,0.00,,2013-05-23 13:52:00,
2013-05-23 10:02:00,75.0,59.0,29.93,SE,140,7.0,10.0,58,0.00,,,0.00,,2013-05-23 14:02:00,
2013-05-23 10:11:00,75.0,59.0,29.93,SE,140,7.0,10.0,58,0.00,,,0.00,,2013-05-23 14:11:00,
2013-05-23 10:21:00,77.0,61.0,29.93,South,190,8.0,10.0,57,0.00,,,0.00,,2013-05-23 14:21:00,
2013-05-23 10:32:00,78.0,61.0,29.93,SE,125,8.0,10.0,55,0.00,,,0.00,,2013-05-23 14:32:00,
2013-05-23 10:42:00,78.0,61.0,29.93,SE,125,8.0,10.0,55,0.00,,,0.00,,2013-05-23 14:42:00,
2013-05-23 10:52:00,78.0,61.0,29.93,South,170,7.0,12.0,55,0.00,,,0.00,,2013-05-23 14:52:00,
2013-05-23 11:01:00,79.0,61.0,29.93,South,175,8.0,12.0,54,0.00,,,0.00,,2013-05-23 15:01:00,
2013-05-23 11:11:00,79.0,61.0,29.93,South,175,8.0,12.0,54,0.00,,,0.00,,2013-05-23 15:11:00,
2013-05-23 11:22:00,78.0,61.0,29.93,SSE,165,9.0,14.0,55,0.00,,,0.00,,2013-05-23 15:22:00,
2013-05-23 11:33:00,78.0,61.0,29.93,South,175,9.0,12.0,55,0.00,,,0.00,,2013-05-23 15:33:00,
2013-05-23 11:42:00,78.0,61.0,29.93,South,175,9.0,12.0,55,0.00,,,0.00,,2013-05-23 15:42:00,
2013-05-23 11:53:00,78.0,59.0,29.93,SE,135,8.0,14.0,52,0.00,,,0.00,,2013-05-23 15:53:00,
2013-05-23 12:03:00,78.0,59.0,29.93,SSE,155,8.0,13.0,53,0.00,,,0.00,,2013-05-23 16:03:00,
2013-05-23 12:12:00,78.0,59.0,29.93,SSE,155,8.0,13.0,53,0.00,,,0.00,,2013-05-23 16:12:00,
2013-05-23 12:23:00,78.0,59.0,29.93,SE,145,10.0,14.0,52,0.00,,,0.00,,2013-05-23 16:23:00,
2013-05-23 12:33:00,76.0,58.0,29.93,SE,135,10.0,14.0,54,0.00,,,0.00,,2013-05-23 16:33:00,
2013-05-23 12:42:00,76.0,58.0,29.93,SE,135,10.0,14.0,54,0.00,,,0.00,,2013-05-23 16:42:00,
2013-05-23 12:52:00,77.0,60.0,29.93,SE,135,10.0,14.0,56,0.00,,,0.00,,2013-05-23 16:52:00,
2013-05-23 13:03:00,76.0,58.0,29.93,SSE,150,10.0,13.0,54,0.00,,,0.00,,2013-05-23 17:03:00,
2013-05-23 13:11:00,76.0,58.0,29.93,SSE,150,10.0,13.0,54,0.00,,,0.00,,2013-05-23 17:11:00,
2013-05-23 13:23:00,76.0,59.0,29.93,South,185,10.0,15.0,55,0.00,,,0.00,,2013-05-23 17:23:00,
2013-05-23 13:33:00,75.0,57.0,29.90,ESE,115,10.0,12.0,54,0.00,,,0.00,,2013-05-23 17:33:00,
2013-05-23 13:43:00,75.0,57.0,29.90,ESE,115,10.0,12.0,54,0.00,,,0.00,,2013-05-23 17:43:00,
2013-05-23 13:53:00,76.0,58.0,29.90,ESE,120,10.0,13.0,54,0.00,,,0.00,,2013-05-23 17:53:00,
2013-05-23 14:01:00,77.0,59.0,29.90,South,185,9.0,10.0,54,0.00,,,0.00,,2013-05-23 18:01:00,
2013-05-23 14:11:00,77.0,59.0,29.90,South,185,9.0,10.0,54,0.00,,,0.00,,2013-05-23 18:11:00,
2013-05-23 14:22:00,81.0,60.0,29.90,South,170,10.0,16.0,49,0.00,,,0.00,,2013-05-23 18:22:00,
2013-05-23 14:32:00,81.0,60.0,29.90,SE,125,10.0,10.0,49,0.00,,,0.00,,2013-05-23 18:32:00,
2013-05-23 14:42:00,81.0,60.0,29.90,SE,125,10.0,10.0,49,0.00,,,0.00,,2013-05-23 18:42:00,
2013-05-23 14:52:00,78.0,59.0,29.90,SE,130,12.0,16.0,53,0.00,,,0.00,,2013-05-23 18:52:00,
2013-05-23 15:01:00,79.0,60.0,29.90,SE,135,12.0,15.0,53,0.00,,,0.00,,2013-05-23 19:01:00,
2013-05-23 15:11:00,79.0,60.0,29.90,SE,135,12.0,15.0,53,0.00,,,0.00,,2013-05-23 19:11:00,
2013-05-23 15:21:00,78.0,59.0,29.90,SSE,150,13.0,16.0,53,0.00,,,0.00,,2013-05-23 19:21:00,
2013-05-23 15:32:00,77.0,59.0,29.87,South,170,12.0,12.0,54,0.00,,,0.00,,2013-05-23 19:32:00,
2013-05-23 15:42:00,73.0,59.0,29.87,SE,145,12.0,14.0,61,0.00,,,0.00,,2013-05-23 19:42:00,
2013-05-23 15:52:00,73.0,59.0,29.87,SE,145,12.0,14.0,61,0.00,,,0.00,,2013-05-23 19:52:00,
2013-05-23 16:02:00,72.0,58.0,29.87,SSE,165,12.0,13.0,62,0.00,,,0.00,,2013-05-23 20:02:00,
2013-05-23 16:11:00,72.0,58.0,29.87,SSE,165,12.0,13.0,62,0.00,,,0.00,,2013-05-23 20:11:00,
2013-05-23 16:21:00,70.0,59.0,29.87,South,185,9.0,14.0,69,0.00,,,0.00,,2013-05-23 20:21:00,
2013-05-23 16:32:00,69.0,60.0,29.87,SE,135,9.0,14.0,73,0.00,,,0.00,,2013-05-23 20:32:00,
2013-05-23 16:42:00,69.0,60.0,29.87,SE,135,9.0,14.0,73,0.00,,,0.00,,2013-05-23 20:42:00,
2013-05-23 16:52:00,69.0,60.0,29.87,SE,135,9.0,14.0,73,0.00,,,0.00,,2013-05-23 20:52:00,
2013-05-23 17:01:00,67.0,62.0,29.87,SSE,150,9.0,13.0,84,0.06,,,0.06,,2013-05-23 21:01:00,
2013-05-23 17:11:00,67.0,62.0,29.87,SSE,150,9.0,13.0,84,0.06,,,0.06,,2013-05-23 21:11:00,
2013-05-23 17:22:00,69.0,64.0,29.87,SE,145,8.0,13.0,85,0.06,,,0.06,,2013-05-23 21:22:00,
2013-05-23 17:32:00,70.0,64.0,29.87,SSE,155,10.0,16.0,81,0.06,,,0.06,,2013-05-23 21:32:00,
2013-05-23 17:43:00,70.0,64.0,29.87,SSE,155,10.0,16.0,81,0.06,,,0.06,,2013-05-23 21:43:00,
2013-05-23 17:53:00,70.0,62.0,29.87,ESE,110,10.0,14.0,76,0.01,,,0.06,,2013-05-23 21:53:00,
2013-05-23 18:03:00,69.0,61.0,29.87,ESE,115,12.0,17.0,76,0.00,,,0.06,,2013-05-23 22:03:00,
2013-05-23 18:12:00,69.0,61.0,29.87,ESE,115,12.0,17.0,76,0.00,,,0.06,,2013-05-23 22:12:00,
2013-05-23 18:22:00,69.0,62.0,29.84,SE,140,10.0,17.0,78,0.00,,,0.06,,2013-05-23 22:22:00,
2013-05-23 18:33:00,69.0,61.0,29.84,SSE,165,10.0,12.0,77,0.00,,,0.06,,2013-05-23 22:33:00,
2013-05-23 18:42:00,69.0,61.0,29.84,SSE,165,10.0,12.0,77,0.00,,,0.06,,2013-05-23 22:42:00,
2013-05-23 18:52:00,68.0,61.0,29.84,ESE,105,10.0,13.0,78,0.00,,,0.06,,2013-05-23 22:52:00,
2013-05-23 19:02:00,68.0,61.0,29.84,SE,135,10.0,12.0,78,0.00,,,0.06,,2013-05-23 23:02:00,
2013-05-23 19:11:00,67.0,61.0,29.84,SE,125,10.0,13.0,80,0.00,,,0.06,,2013-05-23 23:11:00,
2013-05-23 19:21:00,67.0,61.0,29.84,SE,125,10.0,13.0,80,0.00,,,0.06,,2013-05-23 23:21:00,
2013-05-23 19:32:00,67.0,61.0,29.84,SE,145,10.0,13.0,80,0.00,,,0.06,,2013-05-23 23:32:00,
2013-05-23 19:42:00,67.0,61.0,29.84,SE,145,10.0,13.0,80,0.00,,,0.06,,2013-05-23 23:42:00,
2013-05-23 19:52:00,66.0,61.0,29.84,SSE,165,8.0,15.0,83,0.00,,,0.06,,2013-05-23 23:52:00,
2013-05-23 20:01:00,66.0,61.0,29.84,SE,130,9.0,15.0,85,0.00,,,0.06,,2013-05-24 00:01:00,
2013-05-23 20:12:00,66.0,61.0,29.84,SE,130,9.0,15.0,85,0.00,,,0.06,,2013-05-24 00:12:00,
2013-05-23 20:21:00,65.0,61.0,29.81,SE,135,9.0,12.0,86,0.00,,,0.06,,2013-05-24 00:21:00,
2013-05-23 20:32:00,65.0,62.0,29.81,SSE,160,9.0,14.0,89,0.00,,,0.06,,2013-05-24 00:32:00,
2013-05-23 20:42:00,65.0,62.0,29.81,SSE,160,9.0,14.0,89,0.00,,,0.06,,2013-05-24 00:42:00,
2013-05-23 20:52:00,65.0,62.0,29.81,SSE,150,8.0,10.0,91,0.00,,,0.06,,2013-05-24 00:52:00,
2013-05-23 21:01:00,65.0,63.0,29.81,SSE,150,7.0,7.0,92,0.00,,,0.06,,2013-05-24 01:01:00,
2013-05-23 21:12:00,65.0,63.0,29.81,SSE,150,7.0,7.0,92,0.00,,,0.06,,2013-05-24 01:12:00,
2013-05-23 21:22:00,65.0,63.0,29.81,SW,225,7.0,9.0,94,0.00,,,0.06,,2013-05-24 01:22:00,
2013-05-23 21:32:00,65.0,63.0,29.81,SW,215,7.0,7.0,94,0.00,,,0.06,,2013-05-24 01:32:00,
2013-05-23 21:42:00,65.0,63.0,29.81,SW,215,7.0,7.0,94,0.00,,,0.06,,2013-05-24 01:42:00,
2013-05-23 21:52:00,65.0,64.0,29.81,SSE,150,7.0,10.0,95,0.00,,,0.06,,2013-05-24 01:52:00,
2013-05-23 22:02:00,65.0,64.0,29.81,SSE,160,8.0,9.0,96,0.00,,,0.06,,2013-05-24 02:02:00,
2013-05-23 22:12:00,65.0,64.0,29.81,SSE,160,8.0,9.0,96,0.00,,,0.06,,2013-05-24 02:12:00,
2013-05-23 22:22:00,65.0,64.0,29.81,SE,140,8.0,10.0,97,0.00,,,0.06,,2013-05-24 02:22:00,
2013-05-23 22:32:00,65.0,64.0,29.81,SE,135,7.0,9.0,97,0.00,,,0.06,,2013-05-24 02:32:00,
2013-05-23 22:42:00,65.0,64.0,29.81,SE,135,7.0,9.0,97,0.00,,,0.06,,2013-05-24 02:42:00,
2013-05-23 22:52:00,65.0,64.0,29.78,SSE,155,6.0,9.0,97,0.00,,,0.06,,2013-05-24 02:52:00,
2013-05-23 23:02:00,65.0,64.0,29.78,South,170,6.0,10.0,97,0.00,,,0.06,,2013-05-24 03:02:00,
2013-05-23 23:11:00,64.0,63.0,29.78,SSE,160,8.0,12.0,97,0.00,,,0.06,,2013-05-24 03:11:00,
2013-05-23 23:22:00,64.0,63.0,29.78,SSE,160,8.0,12.0,97,0.00,,,0.06,,2013-05-24 03:22:00,
2013-05-23 23:33:00,64.0,63.0,29.78,East,90,6.0,6.0,97,0.00,,,0.06,,2013-05-24 03:33:00,
2013-05-23 23:42:00,64.0,63.0,29.78,East,90,6.0,6.0,97,0.00,,,0.06,,2013-05-24 03:42:00,
2013-05-23 23:53:00,64.0,63.0,29.78,ESE,120,3.0,7.0,97,0.00,,,0.06,,2013-05-24 03:53:00,